Time;durP1;ratioP1;P1;durP2;ratioP2;P2;SDS_P1;SDS_P2;PMS_P1;PMS_P2;Temp;Humidity;BMP_temperature;BMP_pressure;BME280_temperature;BME280_humidity;BME280_pressure;Samples;Min_cycle;Max_cycle;Signal;HPM_P1;HPM_P2
2022/03/20 00:01:50;;;;;;;52.20;25.60;;;;;;;-6.03;58.36;103838.23;107694;1245;59913;-66
2022/03/20 00:04:19;;;;;;;39.40;19.80;;;;;;;-6.16;56.81;103839.02;107729;1243;60531;-66
2022/03/20 00:06:48;;;;;;;39.00;18.50;;;;;;;-6.31;57.76;103841.04;107712;1244;74746;-65
2022/03/20 00:09:17;;;;;;;51.90;25.60;;;;;;;-6.41;56.65;103836.46;107740;1244;69922;-69
2022/03/20 00:11:46;;;;;;;58.50;27.40;;;;;;;-6.52;57.65;103833.77;107713;1244;71459;-66
2022/03/20 00:14:15;;;;;;;52.70;24.60;;;;;;;-6.54;60.64;103835.36;107687;1245;73891;-65
2022/03/20 00:16:44;;;;;;;37.60;19.50;;;;;;;-6.54;61.55;103839.27;107697;1244;60904;-64
2022/03/20 00:19:12;;;;;;;50.80;21.50;;;;;;;-6.59;58.11;103836.30;107693;1243;60772;-65
2022/03/20 00:21:41;;;;;;;28.10;13.60;;;;;;;-6.67;57.60;103836.25;107703;1244;74560;-66
2022/03/20 00:24:10;;;;;;;48.10;24.20;;;;;;;-6.72;58.73;103841.13;107615;1244;73187;-65
2022/03/20 00:26:41;;;;;;;45.00;21.40;;;;;;;-6.66;60.79;103841.23;107627;1245;71009;-65
2022/03/20 00:29:11;;;;;;;43.90;23.60;;;;;;;-6.59;60.51;103837.30;107606;1245;74487;-64
2022/03/20 00:31:40;;;;;;;53.30;25.40;;;;;;;-6.52;60.60;103836.11;107698;1244;62172;-65
2022/03/20 00:34:09;;;;;;;49.90;23.30;;;;;;;-6.50;61.62;103841.84;107622;1244;61869;-65
2022/03/20 00:36:38;;;;;;;51.40;23.60;;;;;;;-6.42;60.43;103837.11;107566;1245;75203;-68
2022/03/20 00:39:08;;;;;;;47.30;24.90;;;;;;;-6.39;61.05;103836.23;107647;1244;72865;-67
2022/03/20 00:41:37;;;;;;;52.40;23.70;;;;;;;-6.38;59.97;103836.64;107703;1245;69056;-66
2022/03/20 00:44:06;;;;;;;50.20;25.30;;;;;;;-6.41;60.11;103837.19;107598;1244;72651;-65
2022/03/20 00:46:35;;;;;;;57.80;24.60;;;;;;;-6.47;62.60;103837.21;107633;1244;60243;-66
2022/03/20 00:49:05;;;;;;;49.60;24.10;;;;;;;-6.52;60.60;103839.71;107578;1244;60832;-66
2022/03/20 00:51:34;;;;;;;53.60;25.40;;;;;;;-6.55;60.90;103840.39;107541;1244;73529;-64
2022/03/20 00:54:03;;;;;;;47.40;23.50;;;;;;;-6.57;60.84;103840.98;107603;1244;72072;-64
2022/03/20 00:56:32;;;;;;;52.00;25.10;;;;;;;-6.59;60.77;103833.93;107575;1244;71552;-64
2022/03/20 00:59:01;;;;;;;48.20;24.00;;;;;;;-6.66;61.36;103831.42;107550;1244;72668;-64
2022/03/20 01:01:32;;;;;;;50.80;24.60;;;;;;;-6.75;61.23;103832.63;107677;1244;60366;-63
2022/03/20 01:04:01;;;;;;;50.00;23.80;;;;;;;-6.79;61.04;103832.11;107582;1244;62150;-65
2022/03/20 01:06:31;;;;;;;50.20;25.40;;;;;;;-6.84;61.77;103834.90;107723;1245;74731;-64
2022/03/20 01:09:00;;;;;;;49.60;22.40;;;;;;;-6.86;61.93;103833.46;107793;1244;70827;-64
2022/03/20 01:11:29;;;;;;;49.90;21.70;;;;;;;-6.88;62.05;103831.48;107759;1244;67970;-65
2022/03/20 01:13:58;;;;;;;54.10;25.20;;;;;;;-6.87;62.05;103826.95;107780;1243;71491;-66
2022/03/20 01:16:27;;;;;;;51.20;22.80;;;;;;;-6.87;62.85;103834.61;107566;1243;59785;-65
2022/03/20 01:18:56;;;;;;;48.80;24.30;;;;;;;-6.84;62.73;103832.19;107672;1244;58936;-65
2022/03/20 01:21:25;;;;;;;48.60;24.00;;;;;;;-6.79;63.82;103832.46;107745;1244;73259;-65
2022/03/20 01:23:54;;;;;;;48.80;24.50;;;;;;;-6.69;62.60;103832.45;107789;1244;70848;-65
2022/03/20 01:26:23;;;;;;;50.50;23.40;;;;;;;-6.56;62.28;103831.34;107812;1244;68276;-65
2022/03/20 01:28:52;;;;;;;58.90;26.20;;;;;;;-6.49;62.20;103831.38;107766;1244;72328;-65
2022/03/20 01:31:21;;;;;;;53.20;24.90;;;;;;;-6.42;61.06;103833.39;107746;1244;58962;-66
2022/03/20 01:33:50;;;;;;;45.00;23.50;;;;;;;-6.43;61.04;103828.09;107656;1247;59886;-63
2022/03/20 01:36:19;;;;;;;51.00;24.70;;;;;;;-6.43;61.03;103831.48;107919;1246;72834;-67
2022/03/20 01:38:48;;;;;;;53.20;24.20;;;;;;;-6.46;61.19;103826.41;108043;1244;70765;-64
2022/03/20 01:41:17;;;;;;;52.30;25.30;;;;;;;-6.48;60.51;103823.78;107973;1244;68845;-65
2022/03/20 01:43:54;;;;;;;53.80;24.20;;;;;;;-6.54;61.28;103829.59;107916;1244;74715;-65
2022/03/20 01:46:23;;;;;;;55.60;24.70;;;;;;;-6.62;62.56;103824.80;107869;1244;59562;-65
2022/03/20 01:48:53;;;;;;;53.30;23.90;;;;;;;-6.66;61.30;103818.48;107754;1244;61273;-68
2022/03/20 01:52:10;;;;;;;51.70;25.50;;;;;;;-6.74;61.95;103822.89;107747;1245;71322;-67
2022/03/20 01:54:12;;;;;;;56.90;24.30;;;;;;;-6.75;62.41;103821.66;107657;1244;69716;-67
2022/03/20 01:56:49;;;;;;;54.60;23.60;;;;;;;-6.76;62.19;103821.05;107727;1244;68755;-65
2022/03/20 01:59:18;;;;;;;45.70;21.50;;;;;;;-6.76;62.20;103824.79;107798;1243;72717;-66
2022/03/20 02:01:48;;;;;;;43.10;20.80;;;;;;;-6.76;62.10;103826.83;107620;1244;62199;-66
2022/03/20 02:04:17;;;;;;;46.30;22.60;;;;;;;-6.73;64.11;103822.76;107648;1245;61634;-64
2022/03/20 02:06:47;;;;;;;46.40;22.80;;;;;;;-6.71;62.67;103820.30;107524;1246;73520;-67
2022/03/20 02:09:17;;;;;;;49.10;22.00;;;;;;;-6.65;62.64;103819.03;107688;1244;70408;-67
2022/03/20 02:11:47;;;;;;;53.20;22.50;;;;;;;-6.59;62.09;103822.20;107628;1243;70518;-65
2022/03/20 02:14:16;;;;;;;49.00;22.30;;;;;;;-6.53;61.71;103825.20;107569;1245;73881;-66
2022/03/20 02:16:46;;;;;;;51.00;23.40;;;;;;;-6.49;61.37;103822.71;107594;1244;59536;-64
2022/03/20 02:19:16;;;;;;;52.40;24.70;;;;;;;-6.44;61.04;103822.45;107676;1244;60547;-65
2022/03/20 02:21:47;;;;;;;49.90;23.90;;;;;;;-6.38;61.61;103818.98;107732;1244;73181;-64
2022/03/20 02:24:32;;;;;;;49.20;23.90;;;;;;;-6.39;60.61;103822.31;107456;1244;72856;-64
2022/03/20 02:27:11;;;;;;;44.60;23.00;;;;;;;-6.44;61.16;103821.41;107734;1244;68576;-64
2022/03/20 02:29:43;;;;;;;59.50;25.00;;;;;;;-6.46;61.27;103825.56;107620;1245;72938;-64
2022/03/20 02:32:16;;;;;;;43.50;22.30;;;;;;;-6.48;61.09;103820.89;107727;1244;60360;-64
2022/03/20 02:34:49;;;;;;;44.20;22.30;;;;;;;-6.50;61.94;103819.61;107732;1243;62787;-64
2022/03/20 02:37:22;;;;;;;45.90;24.30;;;;;;;-6.54;61.75;103816.88;107770;1244;72421;-65
2022/03/20 02:39:56;;;;;;;48.20;24.50;;;;;;;-6.59;62.52;103811.87;107716;1244;71699;-64
2022/03/20 02:42:26;;;;;;;51.80;23.40;;;;;;;-6.67;63.11;103817.13;107619;1244;70937;-65
2022/03/20 02:45:03;;;;;;;48.40;20.90;;;;;;;-6.72;62.59;103816.33;107800;1244;72517;-65
2022/03/20 02:47:38;;;;;;;45.30;22.30;;;;;;;-6.76;61.85;103811.05;107689;1243;60643;-64
2022/03/20 02:50:19;;;;;;;49.60;23.50;;;;;;;-6.76;62.69;103812.43;107658;1244;58937;-64
2022/03/20 02:52:51;;;;;;;48.60;22.60;;;;;;;-6.73;62.37;103814.12;107581;1245;73400;-64
2022/03/20 02:55:35;;;;;;;44.60;21.80;;;;;;;-6.70;61.44;103816.95;107628;1244;70592;-65
2022/03/20 02:58:12;;;;;;;53.60;23.70;;;;;;;-6.66;62.07;103813.56;107762;1244;71170;-65
2022/03/20 03:00:43;;;;;;;25.70;12.70;;;;;;;-6.62;61.88;103819.40;107693;1244;74314;-66
2022/03/20 03:03:12;;;;;;;47.90;24.40;;;;;;;-6.62;62.35;103813.27;107590;1244;61081;-65
2022/03/20 03:05:43;;;;;;;55.80;23.10;;;;;;;-6.53;62.31;103811.48;107758;1244;61529;-67
2022/03/20 03:10:59;;;;;;;47.80;25.00;;;;;;;-6.44;62.83;103820.73;107807;1244;70403;-65
2022/03/20 03:13:36;;;;;;;46.80;21.10;;;;;;;-6.43;61.40;103824.02;107848;1242;68719;-66
2022/03/20 03:16:10;;;;;;;48.10;26.10;;;;;;;-6.46;61.67;103820.14;107740;1244;74246;-65
2022/03/20 03:18:43;;;;;;;48.50;22.60;;;;;;;-6.54;62.17;103817.54;107659;1244;60234;-66
2022/03/20 03:21:17;;;;;;;51.80;26.10;;;;;;;-6.54;62.63;103814.81;107681;1244;58624;-68
2022/03/20 03:23:46;;;;;;;58.00;26.00;;;;;;;-6.55;63.09;103816.48;107643;1244;74886;-66
2022/03/20 03:26:16;;;;;;;50.80;26.30;;;;;;;-6.57;62.42;103817.90;107648;1244;72915;-65
2022/03/20 03:28:44;;;;;;;57.40;27.20;;;;;;;-6.54;62.65;103819.05;107579;1243;70964;-68
2022/03/20 03:31:13;;;;;;;51.80;25.90;;;;;;;-6.54;62.24;103816.86;107574;1244;75307;-66
2022/03/20 03:36:30;;;;;;;43.70;18.20;;;;;;;-6.65;60.81;103811.92;107546;1244;62109;-63
2022/03/20 03:38:59;;;;;;;49.60;24.20;;;;;;;-6.72;61.87;103815.02;107431;1244;75293;-64
2022/03/20 03:41:29;;;;;;;44.90;22.60;;;;;;;-6.71;62.76;103812.98;107579;1244;68965;-64
2022/03/20 03:43:58;;;;;;;49.70;23.00;;;;;;;-6.73;63.26;103809.52;107520;1244;69860;-63
2022/03/20 03:46:27;;;;;;;55.80;24.80;;;;;;;-6.73;64.08;103808.32;107559;1244;74032;-64
2022/03/20 03:48:57;;;;;;;52.50;23.90;;;;;;;-6.69;63.89;103813.64;107599;1245;61794;-64
2022/03/20 03:51:26;;;;;;;52.50;24.90;;;;;;;-6.64;64.65;103822.17;107746;1244;59938;-64
2022/03/20 03:53:55;;;;;;;52.40;23.20;;;;;;;-6.57;64.68;103830.27;107698;1244;74081;-64
2022/03/20 03:56:24;;;;;;;44.80;24.00;;;;;;;-6.51;64.10;103823.97;107566;1244;69643;-66
2022/03/20 03:58:54;;;;;;;49.50;25.00;;;;;;;-6.47;64.34;103815.52;107638;1244;70572;-63
2022/03/20 04:01:23;;;;;;;49.50;26.20;;;;;;;-6.44;63.97;103819.38;107468;1244;72471;-67
2022/03/20 04:03:52;;;;;;;51.40;23.90;;;;;;;-6.42;64.02;103822.73;107467;1244;59557;-65
2022/03/20 04:06:21;;;;;;;48.80;24.70;;;;;;;-6.42;64.04;103818.98;107456;1244;60035;-66
2022/03/20 04:08:50;;;;;;;48.30;24.80;;;;;;;-6.44;63.64;103820.05;107635;1244;73253;-65
2022/03/20 04:11:19;;;;;;;49.90;24.80;;;;;;;-6.50;63.11;103826.23;107594;1244;72378;-64
2022/03/20 04:13:48;;;;;;;47.10;24.00;;;;;;;-6.59;63.58;103827.84;107583;1245;70222;-63
2022/03/20 04:16:18;;;;;;;46.90;24.00;;;;;;;-6.64;63.90;103838.77;107565;1244;73076;-65
2022/03/20 04:18:47;;;;;;;50.10;23.60;;;;;;;-6.71;64.70;103841.48;107511;1244;60372;-65
2022/03/20 04:21:17;;;;;;;49.80;24.50;;;;;;;-6.75;64.72;103836.73;107508;1244;60504;-64
2022/03/20 04:23:46;;;;;;;56.90;26.80;;;;;;;-6.77;65.02;103840.49;107631;1244;75537;-64
2022/03/20 04:26:23;;;;;;;49.70;25.60;;;;;;;-6.78;64.86;103842.16;107624;1244;73558;-64
2022/03/20 04:28:53;;;;;;;51.00;22.40;;;;;;;-6.82;65.66;103844.52;107666;1244;68290;-66
2022/03/20 04:31:22;;;;;;;54.10;26.60;;;;;;;-6.79;65.29;103847.20;107585;1244;72958;-67
2022/03/20 04:33:54;;;;;;;51.70;25.10;;;;;;;-6.75;64.91;103844.32;107718;1244;62152;-65
2022/03/20 04:36:27;;;;;;;50.90;25.60;;;;;;;-6.71;64.34;103841.13;107665;1244;61965;-66
2022/03/20 04:38:58;;;;;;;44.40;25.80;;;;;;;-6.67;63.78;103844.23;109015;1244;74464;-67
2022/03/20 04:41:27;;;;;;;46.90;23.50;;;;;;;-6.64;63.35;103830.83;107750;1244;69783;-65
2022/03/20 04:43:58;;;;;;;20.10;8.40;;;;;;;-6.62;63.09;103817.85;107809;1244;71381;-65
2022/03/20 04:46:27;;;;;;;47.80;23.50;;;;;;;-6.61;62.72;103816.52;108486;1243;74452;-66
2022/03/20 05:00:08;;;;;;;34.70;14.50;;;;;;;-6.30;62.38;103827.84;107783;1244;69422;-65
2022/03/20 05:02:37;;;;;;;31.00;15.60;;;;;;;-6.32;61.28;103828.79;107753;1244;71497;-66
2022/03/20 05:05:09;;;;;;;29.70;16.10;;;;;;;-6.43;61.42;103828.77;107778;1244;61773;-64
2022/03/20 05:07:38;;;;;;;36.70;15.90;;;;;;;-6.50;61.76;103827.90;107721;1244;60176;-65
2022/03/20 05:15:43;;;;;;;47.70;20.90;;;;;;;-6.57;62.13;103836.89;107694;1244;70962;-64
2022/03/20 05:18:13;;;;;;;53.50;25.30;;;;;;;-6.57;62.14;103839.27;107714;1244;72861;-65
2022/03/20 05:20:43;;;;;;;43.50;20.60;;;;;;;-6.50;62.36;103841.16;107789;1243;62066;-68
2022/03/20 05:23:12;;;;;;;52.70;25.60;;;;;;;-6.39;62.41;103843.02;107643;1244;61019;-67
2022/03/20 05:25:42;;;;;;;51.50;23.20;;;;;;;-6.29;62.05;103852.98;107654;1244;74415;-68
2022/03/20 05:28:11;;;;;;;50.60;23.10;;;;;;;-6.19;62.00;103858.89;107687;1244;70582;-66
2022/03/20 05:30:42;;;;;;;41.90;20.60;;;;;;;-6.12;62.02;103844.64;107661;1243;70337;-65
2022/03/20 05:33:12;;;;;;;48.30;25.20;;;;;;;-6.01;60.93;103835.66;107597;1244;72726;-64
2022/03/20 05:35:43;;;;;;;46.20;23.70;;;;;;;-5.92;61.58;103829.92;107497;1244;61921;-67
2022/03/20 05:38:12;;;;;;;44.10;20.60;;;;;;;-5.80;60.50;103829.59;107529;1244;62800;-66
2022/03/20 05:40:44;;;;;;;35.50;17.90;;;;;;;-5.72;60.22;103831.86;107546;1244;76419;-67
2022/03/20 05:43:13;;;;;;;34.50;17.40;;;;;;;-5.65;60.26;103829.28;107551;1244;69929;-66
2022/03/20 05:45:44;;;;;;;45.50;22.00;;;;;;;-5.58;60.13;103822.75;107488;1244;71212;-65
2022/03/20 05:48:13;;;;;;;37.00;19.00;;;;;;;-5.55;60.15;103819.34;107389;1245;74336;-64
2022/03/20 05:50:45;;;;;;;41.70;22.10;;;;;;;-5.47;59.94;103821.91;107669;1244;60600;-67
2022/03/20 05:53:14;;;;;;;35.60;17.50;;;;;;;-5.37;59.97;103827.41;107728;1243;59724;-64
2022/03/20 05:58:30;;;;;;;38.10;16.70;;;;;;;-5.19;59.68;103829.55;107684;1243;69849;-65
2022/03/20 06:01:00;;;;;;;34.40;17.00;;;;;;;-5.18;59.82;103830.95;107674;1243;70674;-67
2022/03/20 06:03:31;;;;;;;44.80;21.00;;;;;;;-5.09;59.82;103836.09;107376;1244;72916;-67
2022/03/20 06:06:01;;;;;;;45.40;21.80;;;;;;;-5.01;60.18;103845.43;107682;1244;61639;-68
2022/03/20 06:08:32;;;;;;;47.00;22.20;;;;;;;-4.87;59.71;103852.15;107641;1244;60123;-65
2022/03/20 06:11:02;;;;;;;42.20;21.20;;;;;;;-4.70;59.59;103855.75;107771;1243;74408;-67
2022/03/20 06:13:32;;;;;;;45.80;22.70;;;;;;;-4.53;58.98;103851.81;107847;1244;69985;-69
2022/03/20 06:16:01;;;;;;;44.40;21.70;;;;;;;-4.43;58.53;103848.98;107665;1243;70625;-67
2022/03/20 06:18:30;;;;;;;46.50;22.70;;;;;;;-4.39;58.98;103841.34;106961;1244;626109;-62
2022/03/20 06:21:00;;;;;;;49.30;25.20;;;;;;;-4.35;59.14;103846.58;107328;1246;60451;-65
2022/03/20 06:23:31;;;;;;;49.30;22.00;;;;;;;-4.20;59.01;103848.88;107633;1243;59464;-68
2022/03/20 06:26:01;;;;;;;45.70;19.70;;;;;;;-4.06;58.84;103847.06;107554;1243;74951;-68
2022/03/20 06:28:30;;;;;;;43.70;22.20;;;;;;;-4.00;58.76;103845.08;107481;1243;73027;-71
2022/03/20 06:31:00;;;;;;;45.00;19.60;;;;;;;-3.93;58.94;103847.70;107522;1243;70454;-71
2022/03/20 06:33:46;;;;;;;41.90;20.00;;;;;;;-3.79;58.84;103849.41;107411;1244;73300;-69
2022/03/20 06:36:16;;;;;;;43.40;21.50;;;;;;;-3.67;58.63;103844.77;107434;1244;60504;-71
2022/03/20 06:38:45;;;;;;;45.90;24.30;;;;;;;-3.59;58.62;103840.44;107489;1243;61307;-71
2022/03/20 06:41:14;;;;;;;37.10;18.80;;;;;;;-3.42;58.38;103839.67;107493;1242;73507;-72
2022/03/20 06:43:43;;;;;;;50.20;24.80;;;;;;;-3.24;57.87;103837.75;107346;1244;72284;-71
2022/03/20 06:46:12;;;;;;;48.20;24.90;;;;;;;-3.16;57.59;103833.95;107829;1243;68763;-67
2022/03/20 06:48:53;;;;;;;48.00;25.60;;;;;;;-3.03;57.24;103834.89;107416;1244;72075;-69
2022/03/20 06:51:22;;;;;;;50.60;24.80;;;;;;;-2.89;56.82;103835.20;107321;1244;59593;-68
2022/03/20 06:53:52;;;;;;;50.30;24.80;;;;;;;-2.88;56.74;103837.61;107449;1243;60546;-70
2022/03/20 06:56:22;;;;;;;45.80;24.80;;;;;;;-2.70;57.20;103838.23;107498;1246;72403;-70
2022/03/20 06:58:51;;;;;;;46.10;26.50;;;;;;;-2.47;56.78;103840.49;107590;1243;73360;-71
2022/03/20 07:01:20;;;;;;;53.00;26.90;;;;;;;-2.32;55.81;103840.79;107437;1244;70481;-70
2022/03/20 07:03:49;;;;;;;48.50;25.20;;;;;;;-2.21;54.47;103841.65;107558;1243;74558;-69
2022/03/20 07:06:18;;;;;;;36.90;20.20;;;;;;;-1.99;54.70;103840.26;107573;1244;59678;-69
2022/03/20 07:08:48;;;;;;;54.90;26.30;;;;;;;-1.80;54.52;103840.30;107394;1245;60108;-71
2022/03/20 07:11:17;;;;;;;42.00;22.00;;;;;;;-1.74;54.31;103830.55;107318;1247;74725;-71
2022/03/20 07:13:49;;;;;;;42.60;21.30;;;;;;;-1.55;53.61;103833.48;107481;1243;72652;-71
2022/03/20 07:16:19;;;;;;;47.90;22.70;;;;;;;-1.38;53.01;103831.40;107565;1243;71827;-70
2022/03/20 07:18:49;;;;;;;37.30;19.50;;;;;;;-1.23;52.48;103827.85;107460;1243;73481;-71
2022/03/20 07:21:19;;;;;;;48.60;24.50;;;;;;;-0.97;52.38;103824.44;107527;1243;61457;-70
2022/03/20 07:23:48;;;;;;;42.80;20.80;;;;;;;-0.77;51.29;103821.85;107493;1243;62647;-71
2022/03/20 07:32:01;;;;;;;46.30;24.50;;;;;;;-0.22;49.53;103813.52;107502;1243;69628;-69
2022/03/20 07:34:31;;;;;;;41.90;21.40;;;;;;;-0.09;49.27;103815.68;107459;1244;72587;-69
2022/03/20 07:37:03;;;;;;;35.30;19.40;;;;;;;0.19;49.21;103812.50;107496;1244;59429;-73
2022/03/20 07:39:34;;;;;;;40.30;20.40;;;;;;;0.38;46.71;103813.76;107590;1243;60642;-83
2022/03/20 07:42:03;;;;;;;31.20;15.20;;;;;;;0.61;45.90;103805.94;107706;1243;73636;-75
2022/03/20 07:44:37;;;;;;;45.40;23.00;;;;;;;0.93;43.30;103802.74;107763;1244;70571;-71
2022/03/20 07:47:08;;;;;;;41.60;21.60;;;;;;;1.05;43.42;103806.89;107595;1243;68750;-74
2022/03/20 07:49:39;;;;;;;38.40;20.50;;;;;;;1.33;43.04;103814.73;107746;1244;72008;-71
2022/03/20 07:52:08;;;;;;;37.00;22.30;;;;;;;1.58;40.98;103808.23;107590;1244;61531;-69
2022/03/20 07:54:38;;;;;;;42.50;21.90;;;;;;;1.71;39.16;103806.70;107540;1243;60754;-69
2022/03/20 07:57:07;;;;;;;38.00;22.60;;;;;;;1.97;40.06;103806.36;107536;1243;75447;-73
2022/03/20 07:59:36;;;;;;;30.00;17.90;;;;;;;2.11;40.02;103800.52;107903;1243;73131;-70
2022/03/20 08:02:08;;;;;;;37.70;18.20;;;;;;;2.26;39.71;103797.41;107789;1243;71786;-72
2022/03/20 08:04:37;;;;;;;33.70;17.70;;;;;;;2.37;38.76;103792.23;107735;1243;73501;-69
2022/03/20 08:07:06;;;;;;;36.50;20.70;;;;;;;2.42;38.31;103792.09;107731;1243;61652;-71
2022/03/20 08:09:35;;;;;;;42.90;21.40;;;;;;;2.55;37.98;103792.39;107527;1244;60603;-71
2022/03/20 08:12:07;;;;;;;35.30;18.90;;;;;;;2.67;37.75;103794.08;107607;1243;72135;-72
2022/03/20 08:14:57;;;;;;;35.00;20.50;;;;;;;2.79;37.97;103786.77;107552;1243;71073;-71
2022/03/20 08:17:28;;;;;;;42.30;21.00;;;;;;;2.96;37.23;103778.67;107491;1244;68977;-70
2022/03/20 08:19:58;;;;;;;32.70;19.70;;;;;;;3.03;36.96;103777.34;107612;1243;71028;-71
2022/03/20 08:22:27;;;;;;;34.30;20.30;;;;;;;3.26;36.95;103772.53;107623;1243;60954;-70
2022/03/20 08:24:56;;;;;;;45.70;28.00;;;;;;;3.47;36.20;103769.91;107620;1243;61352;-74
2022/03/20 08:27:25;;;;;;;39.30;23.70;;;;;;;3.64;35.64;103766.04;107557;1244;72360;-72
2022/03/20 08:29:56;;;;;;;33.70;22.30;;;;;;;3.84;35.33;103763.04;107556;1244;70364;-72
2022/03/20 08:32:25;;;;;;;35.40;21.80;;;;;;;3.97;34.26;103757.39;107835;1244;70986;-71
2022/03/20 08:34:54;;;;;;;33.80;20.70;;;;;;;4.15;34.86;103749.17;107553;1246;72443;-72
2022/03/20 08:37:23;;;;;;;32.40;18.70;;;;;;;4.22;34.07;103740.74;107642;1245;59204;-72
2022/03/20 08:39:52;;;;;;;29.50;16.40;;;;;;;4.38;33.14;103733.88;107489;1246;60144;-72
2022/03/20 08:42:22;;;;;;;29.70;16.30;;;;;;;4.55;33.01;103734.77;107638;1244;72764;-72
2022/03/20 08:44:52;;;;;;;27.50;17.20;;;;;;;4.71;31.65;103729.77;107657;1244;71544;-73
2022/03/20 08:47:21;;;;;;;25.20;15.90;;;;;;;4.81;32.29;103725.61;107638;1243;68596;-72
2022/03/20 08:49:50;;;;;;;27.70;15.40;;;;;;;4.99;31.92;103721.98;107559;1244;72956;-72
2022/03/20 08:52:19;;;;;;;27.20;15.90;;;;;;;5.00;30.59;103718.88;107489;1244;59802;-74
2022/03/20 08:54:48;;;;;;;30.30;16.20;;;;;;;5.07;30.88;103712.30;107718;1243;59726;-71
2022/03/20 08:57:17;;;;;;;27.50;16.30;;;;;;;5.05;29.80;103716.80;107727;1242;72831;-72
2022/03/20 08:59:46;;;;;;;28.00;16.80;;;;;;;5.13;29.70;103708.50;107739;1243;72580;-72
2022/03/20 09:02:15;;;;;;;30.60;17.10;;;;;;;5.22;29.74;103713.83;107551;1243;71105;-74
2022/03/20 09:04:45;;;;;;;25.40;16.20;;;;;;;5.29;29.77;103706.04;107447;1244;74168;-73
2022/03/20 09:07:14;;;;;;;25.10;16.00;;;;;;;5.49;31.02;103701.83;107510;1244;60969;-72
2022/03/20 09:09:47;;;;;;;27.70;16.60;;;;;;;5.71;30.17;103694.30;107452;1243;61826;-72
2022/03/20 09:12:17;;;;;;;30.60;17.60;;;;;;;5.82;29.44;103688.71;107449;1243;75176;-72
2022/03/20 09:14:46;;;;;;;26.40;16.50;;;;;;;5.97;29.33;103686.24;107475;1243;72956;-71
2022/03/20 09:20:03;;;;;;;26.70;15.60;;;;;;;6.17;29.24;103686.30;109860;1243;74483;-73
2022/03/20 09:22:34;;;;;;;25.50;14.40;;;;;;;6.28;29.39;103682.59;109882;1242;59698;-73
2022/03/20 09:25:04;;;;;;;24.90;16.50;;;;;;;6.38;28.85;103682.52;108405;1244;61635;-71
2022/03/20 09:27:33;;;;;;;20.40;13.00;;;;;;;6.49;29.10;103681.73;107550;1243;74477;-72
2022/03/20 09:30:04;;;;;;;13.50;8.40;;;;;;;6.54;28.75;103683.08;107566;1243;71221;-72
2022/03/20 09:32:33;;;;;;;18.50;11.50;;;;;;;6.56;28.81;103674.74;107812;1243;71067;-72
2022/03/20 09:35:03;;;;;;;20.70;12.40;;;;;;;6.60;28.10;103673.16;107352;1243;74307;-72
2022/03/20 09:37:33;;;;;;;22.00;12.70;;;;;;;6.73;28.43;103665.94;107511;1244;59788;-71
2022/03/20 09:40:06;;;;;;;19.80;11.40;;;;;;;6.77;28.28;103667.98;107475;1243;59834;-72
2022/03/20 09:42:35;;;;;;;17.60;10.50;;;;;;;6.87;27.85;103660.44;107611;1243;74353;-70
2022/03/20 09:45:09;;;;;;;18.40;11.20;;;;;;;6.88;27.88;103657.98;107612;1243;72886;-69
2022/03/20 09:47:41;;;;;;;17.60;9.70;;;;;;;6.97;27.98;103648.56;107708;1243;70989;-72
2022/03/20 09:50:12;;;;;;;19.70;12.80;;;;;;;7.14;27.92;103641.77;107446;1244;72690;-72
2022/03/20 09:52:42;;;;;;;23.40;13.80;;;;;;;7.13;27.65;103644.05;107491;1243;60572;-71
2022/03/20 09:55:12;;;;;;;23.00;12.80;;;;;;;7.20;27.71;103638.94;107603;1243;61092;-72
2022/03/20 09:57:41;;;;;;;25.40;15.60;;;;;;;7.28;27.41;103633.13;107574;1244;74895;-73
2022/03/20 10:00:11;;;;;;;23.00;15.10;;;;;;;7.17;27.42;103629.45;107673;1243;72996;-72
2022/03/20 10:02:40;;;;;;;24.70;15.20;;;;;;;7.38;27.56;103621.21;107733;1243;67391;-71
2022/03/20 10:05:11;;;;;;;23.20;14.60;;;;;;;7.64;27.35;103627.98;107731;1243;73482;-72
2022/03/20 10:07:43;;;;;;;22.60;14.20;;;;;;;7.72;26.98;103621.80;107640;1244;60565;-73
2022/03/20 10:10:25;;;;;;;22.80;14.20;;;;;;;7.76;26.63;103619.84;107770;1243;60577;-70
2022/03/20 10:12:59;;;;;;;22.00;12.30;;;;;;;8.02;26.83;103624.65;107616;1243;74541;-71
2022/03/20 10:15:38;;;;;;;19.60;12.80;;;;;;;8.08;26.51;103619.17;107631;1242;70827;-71
2022/03/20 10:18:15;;;;;;;17.70;11.90;;;;;;;8.09;26.59;103614.64;107619;1243;70268;-71
2022/03/20 10:20:59;;;;;;;19.30;11.40;;;;;;;8.12;26.43;103612.52;107504;1244;72532;-71
2022/03/20 10:23:36;;;;;;;16.40;10.60;;;;;;;8.09;26.21;103604.23;107556;1244;59639;-71
2022/03/20 10:26:17;;;;;;;19.40;12.70;;;;;;;8.07;26.46;103596.10;107462;1246;59721;-72
2022/03/20 10:28:55;;;;;;;15.60;9.30;;;;;;;8.23;26.27;103592.20;107520;1244;71936;-72
2022/03/20 10:31:24;;;;;;;13.80;8.60;;;;;;;8.43;25.84;103588.40;107420;1243;71740;-72
2022/03/20 10:34:05;;;;;;;13.00;8.60;;;;;;;8.47;25.44;103586.27;107612;1243;68457;-71
2022/03/20 10:36:36;;;;;;;12.60;7.50;;;;;;;8.83;25.43;103583.67;107700;1243;70621;-73
2022/03/20 10:39:20;;;;;;;13.90;8.30;;;;;;;9.29;26.05;103577.18;107739;1243;59552;-72
2022/03/20 10:41:54;;;;;;;12.90;8.30;;;;;;;9.79;24.87;103569.08;107659;1243;58980;-72
2022/03/20 10:44:39;;;;;;;14.10;8.20;;;;;;;10.12;23.61;103566.71;107678;1244;72069;-72
2022/03/20 10:47:16;;;;;;;9.90;6.80;;;;;;;10.27;23.46;103568.43;107630;1243;72666;-73
2022/03/20 10:50:08;;;;;;;12.20;7.80;;;;;;;10.19;23.37;103568.30;107697;1243;69537;-74
2022/03/20 10:52:37;;;;;;;11.30;8.10;;;;;;;10.08;23.58;103560.19;107679;1243;74915;-73
2022/03/20 10:55:13;;;;;;;13.60;8.30;;;;;;;10.15;23.56;103553.39;107742;1244;61523;-75
2022/03/20 10:57:43;;;;;;;11.40;7.90;;;;;;;10.30;23.57;103550.23;107879;1243;61054;-73
2022/03/20 11:00:14;;;;;;;11.50;8.20;;;;;;;10.72;22.91;103546.16;107708;1243;72751;-73
2022/03/20 11:02:43;;;;;;;11.00;6.60;;;;;;;11.06;22.65;103554.41;107711;1244;70080;-73
2022/03/20 11:05:12;;;;;;;12.40;7.80;;;;;;;11.12;22.62;103549.02;107833;1243;70494;-75
2022/03/20 11:07:43;;;;;;;11.40;8.10;;;;;;;11.02;22.91;103538.34;108363;1243;73472;-75
2022/03/20 11:10:11;;;;;;;15.90;9.30;;;;;;;11.36;23.05;103532.60;108129;1243;61161;-76
2022/03/20 11:12:43;;;;;;;17.50;10.90;;;;;;;11.59;22.63;103525.77;108100;1243;61770;-73
2022/03/20 11:15:13;;;;;;;10.70;8.30;;;;;;;11.94;22.34;103528.64;108127;1243;73773;-75
2022/03/20 11:17:46;;;;;;;11.60;7.80;;;;;;;11.50;21.75;103529.02;108112;1243;69590;-75
2022/03/20 11:20:17;;;;;;;13.00;7.70;;;;;;;11.76;21.05;103519.78;107975;1243;70498;-73
2022/03/20 11:22:51;;;;;;;10.60;7.20;;;;;;;11.90;21.21;103516.35;108023;1243;73458;-73
2022/03/20 11:25:26;;;;;;;10.70;7.90;;;;;;;12.24;20.85;103519.76;107828;1243;61188;-72
2022/03/20 11:28:01;;;;;;;12.30;7.60;;;;;;;11.59;20.99;103513.71;107782;1243;61652;-72
2022/03/20 11:30:34;;;;;;;10.80;7.70;;;;;;;11.59;21.26;103505.67;107769;1243;74966;-73
2022/03/20 11:33:05;;;;;;;12.70;8.00;;;;;;;12.00;20.86;103497.36;107720;1244;69840;-73
2022/03/20 11:35:36;;;;;;;12.90;8.40;;;;;;;11.82;20.90;103496.21;107620;1243;69896;-72
2022/03/20 11:38:24;;;;;;;10.70;7.40;;;;;;;12.08;20.74;103493.41;107836;1243;74198;-72
2022/03/20 11:41:17;;;;;;;10.60;7.60;;;;;;;12.41;20.32;103484.20;107731;1243;60205;-73
2022/03/20 11:44:11;;;;;;;;;;;;;;;12.57;20.65;103484.52;107677;1243;60727;-70
2022/03/20 11:46:42;;;;;;;9.70;7.40;;;;;;;11.87;20.26;103487.29;107842;1243;74083;-70
2022/03/20 11:49:13;;;;;;;10.40;7.10;;;;;;;12.00;20.54;103487.23;107775;1243;72767;-71
2022/03/20 11:52:07;;;;;;;10.20;7.90;;;;;;;12.43;20.46;103486.05;107790;1243;70432;-71
2022/03/20 11:54:42;;;;;;;11.20;6.80;;;;;;;12.74;20.11;103472.86;107783;1243;75090;-72
2022/03/20 11:57:26;;;;;;;11.30;8.30;;;;;;;12.34;20.30;103472.05;107783;1243;60341;-71